KRCR/RCR METAR and TAF weather

Enter ICAO airport designator
Station Type Date Time Source
KRCR METAR 2022/11/30 09:55 UTC NOAA

KRCR 300955Z AUTO 27016G26KT 10SM OVC015 M01/M03 A2978 RMK AO2


Station Type Date Time Source
KRCR Decoded METAR 2022/11/30 09:55 UTC NOAA

Station name not available
Nov 30, 2022 - 04:55 AM EST / 2022.11.30 0955 UTC
Wind: from the W (270 degrees) at 18 MPH (16 KT) gusting to 30 MPH (26 KT):0
Visibility: 10 mile(s):0
Sky conditions: overcast
Temperature: 30 F (-1 C)
Windchill: 17 F (-8 C):1
Dew Point: 26 F (-3 C)
Relative Humidity: 86%
Pressure (altimeter): 29.78 in. Hg (1008 hPa)
ob: KRCR 300955Z AUTO 27016G26KT 10SM OVC015 M01/M03 A2978 RMK AO2
cycle: 10

Station Type Date Time Source
KRCR TAF UTC NOAA

Error!

Example: see airport list